createdAt,value
2024-03-16T00:02:15.650Z,1.90
2024-03-16T00:04:44.265Z,2.10
2024-03-16T00:07:11.160Z,1.58
2024-03-16T00:09:38.439Z,2.05
2024-03-16T00:12:05.511Z,1.40
2024-03-16T00:14:32.470Z,1.40
2024-03-16T00:16:59.226Z,1.70
2024-03-16T00:19:26.130Z,1.10
2024-03-16T00:21:52.692Z,1.25
2024-03-16T00:24:19.691Z,1.10
2024-03-16T00:26:45.992Z,1.15
2024-03-16T00:29:12.764Z,1.05
2024-03-16T00:31:39.254Z,1.13
2024-03-16T00:34:06.005Z,1.20
2024-03-16T00:36:32.550Z,1.08
2024-03-16T00:38:58.872Z,1.08
2024-03-16T00:41:25.301Z,0.90
2024-03-16T00:43:51.549Z,0.98
2024-03-16T00:46:18.434Z,1.00
2024-03-16T00:48:45.172Z,1.08
2024-03-16T00:51:11.469Z,0.90
2024-03-16T00:53:42.244Z,1.20
2024-03-16T00:56:10.910Z,0.93
2024-03-16T00:58:37.794Z,1.00
2024-03-16T01:01:04.684Z,0.80
2024-03-16T01:03:31.458Z,1.02
2024-03-16T01:05:57.903Z,0.95
2024-03-16T01:08:24.172Z,0.70
2024-03-16T01:10:55.214Z,0.82
2024-03-16T01:13:21.908Z,1.00
2024-03-16T01:15:48.448Z,0.80
2024-03-16T01:18:14.778Z,0.70
2024-03-16T01:20:45.148Z,0.80
2024-03-16T01:23:14.010Z,0.80
2024-03-16T01:25:40.562Z,0.90
2024-03-16T01:28:06.858Z,0.88
2024-03-16T01:30:33.364Z,0.90
2024-03-16T01:32:59.812Z,0.73
2024-03-16T01:35:26.220Z,0.85
2024-03-16T01:37:52.493Z,0.80
2024-03-16T01:40:25.588Z,0.73
2024-03-16T01:42:53.875Z,0.90
2024-03-16T01:45:20.822Z,0.80
2024-03-16T01:47:48.580Z,0.70
2024-03-16T01:50:18.334Z,0.70
2024-03-16T01:52:44.665Z,0.70
2024-03-16T01:55:11.115Z,0.70
2024-03-16T01:57:38.824Z,0.80
2024-03-16T02:00:06.375Z,0.88
2024-03-16T02:02:33.935Z,0.90
2024-03-16T02:05:05.112Z,1.02
2024-03-16T02:07:35.367Z,1.23
2024-03-16T02:10:02.426Z,1.13
2024-03-16T02:12:28.998Z,1.10
2024-03-16T02:14:55.386Z,1.02
2024-03-16T02:17:21.718Z,1.10
2024-03-16T02:19:48.524Z,1.25
2024-03-16T02:22:15.050Z,0.95
2024-03-16T02:24:41.661Z,0.90
2024-03-16T02:27:08.013Z,1.02
2024-03-16T02:29:36.567Z,0.90
2024-03-16T02:32:02.885Z,1.00
2024-03-16T02:34:29.174Z,1.10
2024-03-16T02:36:55.522Z,0.82
2024-03-16T02:39:22.228Z,0.90
2024-03-16T02:41:48.499Z,1.00
2024-03-16T02:44:14.805Z,1.20
2024-03-16T02:46:41.192Z,1.20
2024-03-16T02:49:07.710Z,1.27
2024-03-16T02:51:35.119Z,1.30
2024-03-16T02:54:01.440Z,1.30
2024-03-16T02:56:27.858Z,1.10
2024-03-16T02:58:54.117Z,1.30
2024-03-16T03:01:21.273Z,1.50
2024-03-16T03:03:47.829Z,1.42
2024-03-16T03:06:14.151Z,1.73
2024-03-16T03:08:40.534Z,1.63
2024-03-16T03:11:06.817Z,1.80
2024-03-16T03:13:33.216Z,2.22
2024-03-16T03:15:59.535Z,1.83
2024-03-16T03:18:26.361Z,1.80
2024-03-16T03:20:53.173Z,2.15
2024-03-16T03:23:19.546Z,1.90
2024-03-16T03:25:46.742Z,2.13
2024-03-16T03:28:13.155Z,2.35
2024-03-16T03:30:39.591Z,2.35
2024-03-16T03:33:05.975Z,2.75
2024-03-16T03:35:32.934Z,2.55
2024-03-16T03:37:59.266Z,2.45
2024-03-16T03:40:26.394Z,2.70
2024-03-16T03:42:56.801Z,2.80
2024-03-16T03:45:26.546Z,2.47
2024-03-16T03:48:15.900Z,2.95
2024-03-16T03:50:42.437Z,3.05
2024-03-16T03:53:08.788Z,2.65
2024-03-16T03:55:35.074Z,3.05
2024-03-16T03:58:03.364Z,3.20
2024-03-16T04:00:29.952Z,2.63
2024-03-16T04:02:56.359Z,2.85
2024-03-16T04:05:23.289Z,3.10
2024-03-16T04:07:49.627Z,3.35
2024-03-16T04:10:16.010Z,3.47
2024-03-16T04:12:42.444Z,2.70
2024-03-16T04:15:08.734Z,3.50
2024-03-16T04:17:35.003Z,2.75
2024-03-16T04:20:01.583Z,3.08
2024-03-16T04:22:27.872Z,3.05
2024-03-16T04:24:54.259Z,3.30
2024-03-16T04:27:20.587Z,3.10
2024-03-16T04:29:46.950Z,2.95
2024-03-16T04:32:13.251Z,3.28
2024-03-16T04:34:39.619Z,3.33
2024-03-16T04:37:06.338Z,3.08
2024-03-16T04:39:32.749Z,2.90
2024-03-16T04:41:59.179Z,3.38
2024-03-16T04:44:25.433Z,3.20
2024-03-16T04:46:51.823Z,3.13
2024-03-16T04:49:18.162Z,3.40
2024-03-16T04:51:44.511Z,3.10
2024-03-16T04:54:10.827Z,3.22
2024-03-16T04:56:37.135Z,2.85
2024-03-16T04:59:03.491Z,3.47
2024-03-16T05:01:29.942Z,3.50
2024-03-16T05:03:56.610Z,3.58
2024-03-16T05:06:22.909Z,3.33
2024-03-16T05:08:49.255Z,3.13
2024-03-16T05:11:15.704Z,3.28
2024-03-16T05:13:42.970Z,3.50
2024-03-16T05:16:09.496Z,3.30
2024-03-16T05:18:35.925Z,3.60
2024-03-16T05:21:02.309Z,3.40
2024-03-16T05:23:28.625Z,4.03
2024-03-16T05:25:54.909Z,3.28
2024-03-16T05:28:23.194Z,3.20
2024-03-16T05:30:54.330Z,3.63
2024-03-16T05:33:20.681Z,3.80
2024-03-16T05:35:47.043Z,3.60
2024-03-16T05:38:16.684Z,3.50
2024-03-16T05:40:44.761Z,3.08
2024-03-16T05:43:11.254Z,4.25
2024-03-16T05:45:37.577Z,3.75
2024-03-16T05:48:04.105Z,3.53
2024-03-16T05:50:30.518Z,4.05
2024-03-16T05:52:56.843Z,4.35
2024-03-16T05:55:23.129Z,4.25
2024-03-16T05:57:50.076Z,3.95
2024-03-16T06:00:16.508Z,4.72
2024-03-16T06:02:42.834Z,4.95
2024-03-16T06:05:10.535Z,4.70
2024-03-16T06:07:36.793Z,5.38
2024-03-16T06:10:03.257Z,5.25
2024-03-16T06:12:32.037Z,5.18
2024-03-16T06:14:58.877Z,5.60
2024-03-16T06:17:25.332Z,5.68
2024-03-16T06:19:52.195Z,6.28
2024-03-16T06:22:20.098Z,5.20
2024-03-16T06:24:48.450Z,6.15
2024-03-16T06:27:19.557Z,5.60
2024-03-16T06:29:52.931Z,5.45
2024-03-16T06:32:22.613Z,5.75
2024-03-16T06:34:51.970Z,6.25
2024-03-16T06:37:18.528Z,5.85
2024-03-16T06:39:45.188Z,6.18
2024-03-16T06:42:12.909Z,5.22
2024-03-16T06:44:39.434Z,5.72
2024-03-16T06:47:06.754Z,5.88
2024-03-16T06:49:33.125Z,6.05
2024-03-16T06:51:59.458Z,5.53
2024-03-16T06:54:25.783Z,5.70
2024-03-16T06:56:52.133Z,4.85
2024-03-16T06:59:18.504Z,4.18
2024-03-16T07:01:45.060Z,4.07
2024-03-16T07:04:13.511Z,4.07
2024-03-16T07:06:39.938Z,4.20
2024-03-16T07:09:09.683Z,4.53
2024-03-16T07:11:36.009Z,4.53
2024-03-16T07:14:02.306Z,4.47
2024-03-16T07:16:28.571Z,4.65
2024-03-16T07:18:54.932Z,4.60
2024-03-16T07:21:24.503Z,5.10
2024-03-16T07:23:52.166Z,5.45
2024-03-16T07:26:18.467Z,5.60
2024-03-16T07:28:44.838Z,5.30
2024-03-16T07:31:11.210Z,5.55
2024-03-16T07:33:37.654Z,5.45
2024-03-16T07:36:05.190Z,5.97
2024-03-16T07:38:31.737Z,5.85
2024-03-16T07:40:58.079Z,4.97
2024-03-16T07:43:24.399Z,5.32
2024-03-16T07:45:50.717Z,4.93
2024-03-16T07:48:17.109Z,4.80
2024-03-16T07:50:43.600Z,4.93
2024-03-16T07:53:11.313Z,4.65
2024-03-16T07:55:40.885Z,4.93
2024-03-16T07:58:08.996Z,5.18
2024-03-16T08:00:35.624Z,4.38
2024-03-16T08:03:02.169Z,4.40
2024-03-16T08:05:28.448Z,4.43
2024-03-16T08:07:54.725Z,4.82
2024-03-16T08:10:21.118Z,5.40
2024-03-16T08:12:47.693Z,4.35
2024-03-16T08:15:14.297Z,4.85
2024-03-16T08:17:40.647Z,5.03
2024-03-16T08:20:09.164Z,4.63
2024-03-16T08:22:35.511Z,4.80
2024-03-16T08:25:01.935Z,4.75
2024-03-16T08:27:32.255Z,4.72
2024-03-16T08:30:00.913Z,4.55
2024-03-16T08:32:27.305Z,4.88
2024-03-16T08:34:55.867Z,4.35
2024-03-16T08:37:22.246Z,4.07
2024-03-16T08:39:48.937Z,4.25
2024-03-16T08:42:15.899Z,3.92
2024-03-16T08:44:42.264Z,3.78
2024-03-16T08:47:08.725Z,4.40
2024-03-16T08:49:35.953Z,4.13
2024-03-16T08:52:02.386Z,3.60
2024-03-16T08:54:31.072Z,3.70
2024-03-16T08:56:57.662Z,3.53
2024-03-16T08:59:23.955Z,3.58
2024-03-16T09:01:50.454Z,3.58
2024-03-16T09:04:16.928Z,3.15
2024-03-16T09:06:43.413Z,2.50
2024-03-16T09:09:13.055Z,2.60
2024-03-16T09:11:39.558Z,2.65
2024-03-16T09:14:08.647Z,2.10
2024-03-16T09:16:41.761Z,2.35
2024-03-16T09:19:08.489Z,1.98
2024-03-16T09:21:34.917Z,2.33
2024-03-16T09:24:01.279Z,1.50
2024-03-16T09:26:28.245Z,1.63
2024-03-16T09:28:54.726Z,1.73
2024-03-16T09:31:24.066Z,1.42
2024-03-16T09:33:50.430Z,1.50
2024-03-16T09:36:16.763Z,1.50
2024-03-16T09:38:43.146Z,1.60
2024-03-16T09:41:14.827Z,1.60
